KHFY

Indy South Greenwood Airport

Indianapolis, Indiana, USA
METAR KHFY 231315Z AUTO 17011KT 2 1/2SM OVC002 11/M40 A3015 RMK AO2 T01101400
Observed Flight Rules
Feb-23 @ 13:15 UTC (an hour ago) Instrument Flight Rules
Wind Visibility Clouds
170° at 11 knots 2 1/2 miles
  • Overcast at 200' AGL
Temperatures Readings
Current 11°C / 52°F
Dewpoint -40°C / -40°F
Humidity 1%
Altimeter 30.15" Hg
Pressure 1021 hPa
Elevation 251
METAR KHFY 231315Z AUTO 17011KT 2 1/2SM OVC002 11/M40 A3015 RMK AO2 T01101400
Observed Flight Rules
Feb-23 @ 13:15 UTC
(an hour ago)
LIFR
Wind Visibility
170° at 11 knots 2 1/2 miles
Clouds
  • Overcast at 200' AGL
Temperature Dewpoint
11°C / 52°F -40°C / -40°F
Humidity Altimeter Pressure
1% 30.15" Hg 1021 hPa